sensor_id;sensor_type;location;lat;lon;timestamp;temperature;humidity
74569;DHT22;63052;50.266;7.968;2022-11-09T00:04:58;16.00;99.90
74569;DHT22;63052;50.266;7.968;2022-11-09T00:15:00;16.20;99.90
74569;DHT22;63052;50.266;7.968;2022-11-09T00:25:03;16.20;99.90
74569;DHT22;63052;50.266;7.968;2022-11-09T00:35:06;16.10;99.90
74569;DHT22;63052;50.266;7.968;2022-11-09T00:45:08;16.20;99.90
74569;DHT22;63052;50.266;7.968;2022-11-09T00:55:11;16.10;99.90
74569;DHT22;63052;50.266;7.968;2022-11-09T01:05:13;16.20;99.90
74569;DHT22;63052;50.266;7.968;2022-11-09T01:15:16;16.20;99.90
74569;DHT22;63052;50.266;7.968;2022-11-09T01:25:19;16.10;99.90
74569;DHT22;63052;50.266;7.968;2022-11-09T01:35:21;16.30;99.90
74569;DHT22;63052;50.266;7.968;2022-11-09T01:45:28;16.10;99.90
74569;DHT22;63052;50.266;7.968;2022-11-09T01:55:31;16.20;99.90
74569;DHT22;63052;50.266;7.968;2022-11-09T02:05:36;16.10;99.90
74569;DHT22;63052;50.266;7.968;2022-11-09T02:15:40;16.10;99.90
74569;DHT22;63052;50.266;7.968;2022-11-09T02:25:50;16.10;99.90
74569;DHT22;63052;50.266;7.968;2022-11-09T02:35:48;16.20;99.90
74569;DHT22;63052;50.266;7.968;2022-11-09T02:45:51;16.30;99.90
74569;DHT22;63052;50.266;7.968;2022-11-09T02:55:53;16.20;99.90
74569;DHT22;63052;50.266;7.968;2022-11-09T03:05:56;16.20;99.90
74569;DHT22;63052;50.266;7.968;2022-11-09T03:16:06;16.20;99.90
74569;DHT22;63052;50.266;7.968;2022-11-09T03:26:08;16.10;99.90
74569;DHT22;63052;50.266;7.968;2022-11-09T03:36:11;16.20;99.90
74569;DHT22;63052;50.266;7.968;2022-11-09T03:46:13;16.10;99.90
74569;DHT22;63052;50.266;7.968;2022-11-09T03:56:16;16.10;99.90
74569;DHT22;63052;50.266;7.968;2022-11-09T04:06:19;16.20;99.90
74569;DHT22;63052;50.266;7.968;2022-11-09T04:16:22;16.20;99.90
74569;DHT22;63052;50.266;7.968;2022-11-09T04:26:24;16.20;99.90
74569;DHT22;63052;50.266;7.968;2022-11-09T04:36:27;16.30;99.90
74569;DHT22;63052;50.266;7.968;2022-11-09T04:46:29;16.10;99.90
74569;DHT22;63052;50.266;7.968;2022-11-09T04:56:32;16.10;99.90
74569;DHT22;63052;50.266;7.968;2022-11-09T05:06:35;16.20;99.90
74569;DHT22;63052;50.266;7.968;2022-11-09T05:16:37;16.20;99.90
74569;DHT22;63052;50.266;7.968;2022-11-09T05:26:40;16.00;99.90
74569;DHT22;63052;50.266;7.968;2022-11-09T05:36:43;16.20;99.90
74569;DHT22;63052;50.266;7.968;2022-11-09T05:46:46;16.10;99.90
74569;DHT22;63052;50.266;7.968;2022-11-09T05:56:48;16.30;99.90
74569;DHT22;63052;50.266;7.968;2022-11-09T06:06:51;16.10;99.90
74569;DHT22;63052;50.266;7.968;2022-11-09T06:16:53;16.20;99.90
74569;DHT22;63052;50.266;7.968;2022-11-09T06:26:56;16.20;99.90
74569;DHT22;63052;50.266;7.968;2022-11-09T06:36:59;16.20;99.90
74569;DHT22;63052;50.266;7.968;2022-11-09T06:47:01;16.20;99.90
74569;DHT22;63052;50.266;7.968;2022-11-09T06:57:04;16.10;99.90
74569;DHT22;63052;50.266;7.968;2022-11-09T07:07:06;16.10;99.90
74569;DHT22;63052;50.266;7.968;2022-11-09T07:17:09;16.10;99.90
74569;DHT22;63052;50.266;7.968;2022-11-09T07:27:11;16.20;99.90
74569;DHT22;63052;50.266;7.968;2022-11-09T07:37:14;16.10;99.90
74569;DHT22;63052;50.266;7.968;2022-11-09T07:47:18;16.10;99.90
74569;DHT22;63052;50.266;7.968;2022-11-09T07:57:20;16.30;99.90
74569;DHT22;63052;50.266;7.968;2022-11-09T08:07:23;16.10;99.90
74569;DHT22;63052;50.266;7.968;2022-11-09T08:17:25;16.20;99.90
74569;DHT22;63052;50.266;7.968;2022-11-09T08:27:29;16.20;99.90
74569;DHT22;63052;50.266;7.968;2022-11-09T08:37:36;16.30;99.90
74569;DHT22;63052;50.266;7.968;2022-11-09T08:47:39;16.40;99.90
74569;DHT22;63052;50.266;7.968;2022-11-09T08:57:41;16.60;99.90
74569;DHT22;63052;50.266;7.968;2022-11-09T09:07:44;16.80;99.90
74569;DHT22;63052;50.266;7.968;2022-11-09T09:17:46;16.80;99.90
74569;DHT22;63052;50.266;7.968;2022-11-09T09:27:49;16.70;99.90
74569;DHT22;63052;50.266;7.968;2022-11-09T09:37:51;16.70;99.90
74569;DHT22;63052;50.266;7.968;2022-11-09T09:48:04;16.70;99.90
74569;DHT22;63052;50.266;7.968;2022-11-09T09:58:15;16.90;99.90
74569;DHT22;63052;50.266;7.968;2022-11-09T10:29:26;16.70;99.90
74569;DHT22;63052;50.266;7.968;2022-11-09T10:39:36;16.80;99.90
74569;DHT22;63052;50.266;7.968;2022-11-09T10:49:38;16.90;99.90
74569;DHT22;63052;50.266;7.968;2022-11-09T10:59:49;16.80;99.90
74569;DHT22;63052;50.266;7.968;2022-11-09T11:09:52;16.70;99.90
74569;DHT22;63052;50.266;7.968;2022-11-09T11:19:54;16.90;99.90
74569;DHT22;63052;50.266;7.968;2022-11-09T11:40:24;16.70;99.90
74569;DHT22;63052;50.266;7.968;2022-11-09T11:50:31;16.90;99.90
74569;DHT22;63052;50.266;7.968;2022-11-09T12:00:38;16.80;99.90
74569;DHT22;63052;50.266;7.968;2022-11-09T12:21:14;16.70;99.90
74569;DHT22;63052;50.266;7.968;2022-11-09T12:41:33;16.90;99.90
74569;DHT22;63052;50.266;7.968;2022-11-09T12:51:36;16.90;99.90
74569;DHT22;63052;50.266;7.968;2022-11-09T13:01:43;16.70;99.90
74569;DHT22;63052;50.266;7.968;2022-11-09T13:11:49;16.90;99.90
74569;DHT22;63052;50.266;7.968;2022-11-09T13:21:52;16.80;99.90
74569;DHT22;63052;50.266;7.968;2022-11-09T13:32:03;16.90;99.90
74569;DHT22;63052;50.266;7.968;2022-11-09T13:42:24;16.90;99.90
74569;DHT22;63052;50.266;7.968;2022-11-09T13:52:47;17.00;99.90
74569;DHT22;63052;50.266;7.968;2022-11-09T14:02:55;16.90;99.90
74569;DHT22;63052;50.266;7.968;2022-11-09T14:23:27;17.00;99.90
74569;DHT22;63052;50.266;7.968;2022-11-09T14:33:30;16.80;99.90
74569;DHT22;63052;50.266;7.968;2022-11-09T14:43:42;16.90;99.90
74569;DHT22;63052;50.266;7.968;2022-11-09T14:53:46;16.80;99.90
74569;DHT22;63052;50.266;7.968;2022-11-09T15:04:11;16.70;99.90
74569;DHT22;63052;50.266;7.968;2022-11-09T15:24:24;16.90;99.90
74569;DHT22;63052;50.266;7.968;2022-11-09T15:34:31;16.60;99.90
74569;DHT22;63052;50.266;7.968;2022-11-09T15:44:33;16.80;99.90
74569;DHT22;63052;50.266;7.968;2022-11-09T15:54:37;16.80;99.90
74569;DHT22;63052;50.266;7.968;2022-11-09T16:04:40;16.70;99.90
74569;DHT22;63052;50.266;7.968;2022-11-09T16:14:42;16.60;99.90
74569;DHT22;63052;50.266;7.968;2022-11-09T16:24:45;16.60;99.90
74569;DHT22;63052;50.266;7.968;2022-11-09T16:34:48;16.50;99.90
74569;DHT22;63052;50.266;7.968;2022-11-09T16:44:52;16.50;99.90
74569;DHT22;63052;50.266;7.968;2022-11-09T16:54:56;16.70;99.90
74569;DHT22;63052;50.266;7.968;2022-11-09T17:04:58;16.60;99.90
74569;DHT22;63052;50.266;7.968;2022-11-09T17:15:01;16.60;99.90
74569;DHT22;63052;50.266;7.968;2022-11-09T17:25:04;16.50;99.90
74569;DHT22;63052;50.266;7.968;2022-11-09T17:35:06;16.70;99.90
74569;DHT22;63052;50.266;7.968;2022-11-09T17:45:09;16.60;99.90
74569;DHT22;63052;50.266;7.968;2022-11-09T17:55:12;16.50;99.90
74569;DHT22;63052;50.266;7.968;2022-11-09T18:05:14;16.40;99.90
74569;DHT22;63052;50.266;7.968;2022-11-09T18:15:17;16.40;99.90
74569;DHT22;63052;50.266;7.968;2022-11-09T18:25:20;16.50;99.90
74569;DHT22;63052;50.266;7.968;2022-11-09T18:35:22;16.50;99.90
74569;DHT22;63052;50.266;7.968;2022-11-09T18:45:26;16.40;99.90
74569;DHT22;63052;50.266;7.968;2022-11-09T18:55:29;16.40;99.90
74569;DHT22;63052;50.266;7.968;2022-11-09T19:05:32;16.40;99.90
74569;DHT22;63052;50.266;7.968;2022-11-09T19:15:38;16.30;99.90
74569;DHT22;63052;50.266;7.968;2022-11-09T19:25:42;16.40;99.90
74569;DHT22;63052;50.266;7.968;2022-11-09T19:35:52;16.30;99.90
74569;DHT22;63052;50.266;7.968;2022-11-09T19:45:54;16.20;99.90
74569;DHT22;63052;50.266;7.968;2022-11-09T19:56:01;16.30;99.90
74569;DHT22;63052;50.266;7.968;2022-11-09T20:06:05;16.30;99.90
74569;DHT22;63052;50.266;7.968;2022-11-09T20:16:09;16.20;99.90
74569;DHT22;63052;50.266;7.968;2022-11-09T20:26:12;16.30;99.90
74569;DHT22;63052;50.266;7.968;2022-11-09T20:36:15;16.30;99.90
74569;DHT22;63052;50.266;7.968;2022-11-09T20:46:21;16.10;99.90
74569;DHT22;63052;50.266;7.968;2022-11-09T20:56:24;16.20;99.90
74569;DHT22;63052;50.266;7.968;2022-11-09T21:06:26;16.20;99.90
74569;DHT22;63052;50.266;7.968;2022-11-09T21:16:29;16.00;99.90
74569;DHT22;63052;50.266;7.968;2022-11-09T21:26:31;16.10;99.90
74569;DHT22;63052;50.266;7.968;2022-11-09T21:36:51;16.20;99.90
74569;DHT22;63052;50.266;7.968;2022-11-09T21:46:54;16.10;99.90
74569;DHT22;63052;50.266;7.968;2022-11-09T21:56:57;16.00;99.90
74569;DHT22;63052;50.266;7.968;2022-11-09T22:07:00;16.10;99.90
74569;DHT22;63052;50.266;7.968;2022-11-09T22:17:04;15.90;99.90
74569;DHT22;63052;50.266;7.968;2022-11-09T22:27:08;16.00;99.90
74569;DHT22;63052;50.266;7.968;2022-11-09T22:37:11;16.00;99.90
74569;DHT22;63052;50.266;7.968;2022-11-09T22:47:13;16.00;99.90
74569;DHT22;63052;50.266;7.968;2022-11-09T22:57:15;16.00;99.90
74569;DHT22;63052;50.266;7.968;2022-11-09T23:07:18;16.00;99.90
74569;DHT22;63052;50.266;7.968;2022-11-09T23:17:20;15.90;99.90
74569;DHT22;63052;50.266;7.968;2022-11-09T23:27:41;15.90;99.90
74569;DHT22;63052;50.266;7.968;2022-11-09T23:37:44;15.80;99.90
74569;DHT22;63052;50.266;7.968;2022-11-09T23:47:46;15.90;99.90
74569;DHT22;63052;50.266;7.968;2022-11-09T23:57:49;15.90;99.90
